Portada
METAR-TAF:

METAR-TAF

Aeropuertos :

Aeropuerto Internacional de Nayaf

Nayaf, Iraq

latitud: 31-59-23N, longitud: 44-24-15E, altitud: 31 m

Observación

El informe se hizo hace 50 minutos, a las 12:00 UTC
Viento 11 kt del noroeste
Temperatura 45°C
Humedad 7%
Presión 1001 hPa
Visibilidad 10 km o más
sin nubes por debajo de 1500 m y sin presencia de cumulonimbus.

METAR: ORNI 131200Z 32011KT CAVOK 45/01 Q1001

Hora: 15:50 (12:50 UTC)


TAF: falta

Observaciones y pronósticos meteorológicos de más de 4000 aeropuertos (mensajes METAR y TAF).

Los puntos amarillos y rojos representan las estaciones disponibles.

Ponga el ratón en el punto deseado para ver el nombre de la estación.

Haga clic para ver las observaciones y los pronósticos meteorológicos.

Para cambiar el mapa : haga clic en los botones verdes con una cruz de color negro para hacer un zoom, en el botón verde con un guión para alejar o en las flechas verdes para mapas adyacentes.


METAR-TAF: